sensor_id;sensor_type;location;lat;lon;timestamp;temperature;humidity
66032;DHT22;52799;45.654;13.810;2022-07-12T00:00:36;23.50;47.70
66032;DHT22;52799;45.654;13.810;2022-07-12T00:03:01;23.50;47.80
66032;DHT22;52799;45.654;13.810;2022-07-12T00:05:27;23.50;47.70
66032;DHT22;52799;45.654;13.810;2022-07-12T00:07:52;23.50;47.50
66032;DHT22;52799;45.654;13.810;2022-07-12T00:10:18;23.50;47.60
66032;DHT22;52799;45.654;13.810;2022-07-12T00:12:43;23.40;47.60
66032;DHT22;52799;45.654;13.810;2022-07-12T00:15:09;23.40;47.60
66032;DHT22;52799;45.654;13.810;2022-07-12T00:17:35;23.50;47.40
66032;DHT22;52799;45.654;13.810;2022-07-12T00:20:01;23.40;47.50
66032;DHT22;52799;45.654;13.810;2022-07-12T00:22:27;23.40;47.50
66032;DHT22;52799;45.654;13.810;2022-07-12T00:24:54;23.40;47.50
66032;DHT22;52799;45.654;13.810;2022-07-12T00:27:19;23.40;47.30
66032;DHT22;52799;45.654;13.810;2022-07-12T00:29:45;23.50;47.20
66032;DHT22;52799;45.654;13.810;2022-07-12T00:32:10;23.40;47.10
66032;DHT22;52799;45.654;13.810;2022-07-12T00:34:36;23.50;46.80
66032;DHT22;52799;45.654;13.810;2022-07-12T00:37:02;23.50;46.80
66032;DHT22;52799;45.654;13.810;2022-07-12T00:39:27;23.50;46.50
66032;DHT22;52799;45.654;13.810;2022-07-12T00:41:53;23.50;45.90
66032;DHT22;52799;45.654;13.810;2022-07-12T00:44:18;23.50;46.10
66032;DHT22;52799;45.654;13.810;2022-07-12T00:46:45;23.50;46.60
66032;DHT22;52799;45.654;13.810;2022-07-12T00:49:11;23.40;46.20
66032;DHT22;52799;45.654;13.810;2022-07-12T00:51:43;23.30;46.50
66032;DHT22;52799;45.654;13.810;2022-07-12T00:54:09;23.30;46.60
66032;DHT22;52799;45.654;13.810;2022-07-12T00:56:35;23.30;46.30
66032;DHT22;52799;45.654;13.810;2022-07-12T00:59:00;23.20;46.70
66032;DHT22;52799;45.654;13.810;2022-07-12T01:01:26;23.20;46.70
66032;DHT22;52799;45.654;13.810;2022-07-12T01:03:52;23.20;46.60
66032;DHT22;52799;45.654;13.810;2022-07-12T01:06:20;23.20;46.40
66032;DHT22;52799;45.654;13.810;2022-07-12T01:08:46;23.30;46.40
66032;DHT22;52799;45.654;13.810;2022-07-12T01:11:12;23.40;46.30
66032;DHT22;52799;45.654;13.810;2022-07-12T01:13:37;23.10;45.70
66032;DHT22;52799;45.654;13.810;2022-07-12T01:16:04;23.10;46.50
66032;DHT22;52799;45.654;13.810;2022-07-12T01:18:30;23.10;46.50
66032;DHT22;52799;45.654;13.810;2022-07-12T01:20:57;23.20;46.40
66032;DHT22;52799;45.654;13.810;2022-07-12T01:23:23;23.20;46.20
66032;DHT22;52799;45.654;13.810;2022-07-12T01:25:49;23.20;46.10
66032;DHT22;52799;45.654;13.810;2022-07-12T01:28:14;23.20;45.50
66032;DHT22;52799;45.654;13.810;2022-07-12T01:30:40;23.00;46.10
66032;DHT22;52799;45.654;13.810;2022-07-12T01:33:06;23.00;46.30
66032;DHT22;52799;45.654;13.810;2022-07-12T01:35:32;23.00;46.10
66032;DHT22;52799;45.654;13.810;2022-07-12T01:37:58;23.00;46.20
66032;DHT22;52799;45.654;13.810;2022-07-12T01:40:24;23.10;45.90
66032;DHT22;52799;45.654;13.810;2022-07-12T01:42:50;22.80;46.20
66032;DHT22;52799;45.654;13.810;2022-07-12T01:45:16;22.90;46.10
66032;DHT22;52799;45.654;13.810;2022-07-12T01:47:42;23.00;46.00
66032;DHT22;52799;45.654;13.810;2022-07-12T01:50:08;23.00;46.10
66032;DHT22;52799;45.654;13.810;2022-07-12T01:52:34;23.00;46.00
66032;DHT22;52799;45.654;13.810;2022-07-12T01:54:59;22.90;46.00
66032;DHT22;52799;45.654;13.810;2022-07-12T01:57:26;22.90;45.90
66032;DHT22;52799;45.654;13.810;2022-07-12T01:59:51;22.90;45.90
66032;DHT22;52799;45.654;13.810;2022-07-12T02:02:17;22.90;45.60
66032;DHT22;52799;45.654;13.810;2022-07-12T02:04:43;23.00;46.20
66032;DHT22;52799;45.654;13.810;2022-07-12T02:07:09;23.00;45.60
66032;DHT22;52799;45.654;13.810;2022-07-12T02:09:35;22.90;45.80
66032;DHT22;52799;45.654;13.810;2022-07-12T02:12:00;22.80;46.40
66032;DHT22;52799;45.654;13.810;2022-07-12T02:14:26;22.80;46.10
66032;DHT22;52799;45.654;13.810;2022-07-12T02:16:52;22.80;46.20
66032;DHT22;52799;45.654;13.810;2022-07-12T02:19:18;22.80;46.20
66032;DHT22;52799;45.654;13.810;2022-07-12T02:21:43;22.70;46.30
66032;DHT22;52799;45.654;13.810;2022-07-12T02:24:09;22.60;46.60
66032;DHT22;52799;45.654;13.810;2022-07-12T02:26:37;22.60;47.00
66032;DHT22;52799;45.654;13.810;2022-07-12T02:29:04;22.50;46.80
66032;DHT22;52799;45.654;13.810;2022-07-12T02:31:30;22.50;46.90
66032;DHT22;52799;45.654;13.810;2022-07-12T02:33:55;22.60;46.80
66032;DHT22;52799;45.654;13.810;2022-07-12T02:36:21;22.60;46.80
66032;DHT22;52799;45.654;13.810;2022-07-12T02:38:47;22.60;46.80
66032;DHT22;52799;45.654;13.810;2022-07-12T02:41:12;22.70;46.90
66032;DHT22;52799;45.654;13.810;2022-07-12T02:43:38;22.70;46.80
66032;DHT22;52799;45.654;13.810;2022-07-12T02:46:04;22.60;46.70
66032;DHT22;52799;45.654;13.810;2022-07-12T02:48:31;22.60;46.40
66032;DHT22;52799;45.654;13.810;2022-07-12T02:50:56;22.50;46.50
66032;DHT22;52799;45.654;13.810;2022-07-12T02:53:22;22.40;46.50
66032;DHT22;52799;45.654;13.810;2022-07-12T02:55:47;22.50;46.40
66032;DHT22;52799;45.654;13.810;2022-07-12T02:58:13;22.50;46.40
66032;DHT22;52799;45.654;13.810;2022-07-12T03:00:38;22.60;46.30
66032;DHT22;52799;45.654;13.810;2022-07-12T03:03:04;22.70;45.90
66032;DHT22;52799;45.654;13.810;2022-07-12T03:05:36;22.70;45.80
66032;DHT22;52799;45.654;13.810;2022-07-12T03:08:05;22.70;46.20
66032;DHT22;52799;45.654;13.810;2022-07-12T03:10:30;22.60;46.10
66032;DHT22;52799;45.654;13.810;2022-07-12T03:12:56;22.60;46.10
66032;DHT22;52799;45.654;13.810;2022-07-12T03:15:22;22.60;46.20
66032;DHT22;52799;45.654;13.810;2022-07-12T03:17:47;22.60;46.00
66032;DHT22;52799;45.654;13.810;2022-07-12T03:20:13;22.70;45.80
66032;DHT22;52799;45.654;13.810;2022-07-12T03:22:43;22.70;46.00
66032;DHT22;52799;45.654;13.810;2022-07-12T03:25:14;22.70;45.70
66032;DHT22;52799;45.654;13.810;2022-07-12T03:27:39;22.80;45.90
66032;DHT22;52799;45.654;13.810;2022-07-12T03:30:05;22.80;45.70
66032;DHT22;52799;45.654;13.810;2022-07-12T03:32:31;22.70;45.60
66032;DHT22;52799;45.654;13.810;2022-07-12T03:34:56;22.80;45.70
66032;DHT22;52799;45.654;13.810;2022-07-12T03:37:22;22.70;45.90
66032;DHT22;52799;45.654;13.810;2022-07-12T03:39:47;22.70;45.80
66032;DHT22;52799;45.654;13.810;2022-07-12T03:42:13;22.70;45.80
66032;DHT22;52799;45.654;13.810;2022-07-12T03:44:39;22.60;45.80
66032;DHT22;52799;45.654;13.810;2022-07-12T03:47:05;22.50;46.30
66032;DHT22;52799;45.654;13.810;2022-07-12T03:49:30;22.50;46.10
66032;DHT22;52799;45.654;13.810;2022-07-12T03:51:56;22.50;46.30
66032;DHT22;52799;45.654;13.810;2022-07-12T03:54:21;22.50;46.30
66032;DHT22;52799;45.654;13.810;2022-07-12T03:56:47;22.60;46.40
66032;DHT22;52799;45.654;13.810;2022-07-12T03:59:31;22.70;46.10
66032;DHT22;52799;45.654;13.810;2022-07-12T04:01:57;22.70;46.10
66032;DHT22;52799;45.654;13.810;2022-07-12T04:04:23;22.50;46.40
66032;DHT22;52799;45.654;13.810;2022-07-12T04:06:48;22.50;46.60
66032;DHT22;52799;45.654;13.810;2022-07-12T04:09:14;22.50;46.60
66032;DHT22;52799;45.654;13.810;2022-07-12T04:11:40;22.40;46.80
66032;DHT22;52799;45.654;13.810;2022-07-12T04:14:05;22.00;47.50
66032;DHT22;52799;45.654;13.810;2022-07-12T04:16:31;22.10;47.60
66032;DHT22;52799;45.654;13.810;2022-07-12T04:18:57;22.10;47.50
66032;DHT22;52799;45.654;13.810;2022-07-12T04:21:22;22.20;47.50
66032;DHT22;52799;45.654;13.810;2022-07-12T04:23:48;22.20;47.50
66032;DHT22;52799;45.654;13.810;2022-07-12T04:26:13;22.10;47.40
66032;DHT22;52799;45.654;13.810;2022-07-12T04:28:39;22.30;47.20
66032;DHT22;52799;45.654;13.810;2022-07-12T04:31:05;22.30;47.10
66032;DHT22;52799;45.654;13.810;2022-07-12T04:33:32;22.30;47.00
66032;DHT22;52799;45.654;13.810;2022-07-12T04:35:57;22.30;47.20
66032;DHT22;52799;45.654;13.810;2022-07-12T04:38:23;22.40;47.00
66032;DHT22;52799;45.654;13.810;2022-07-12T04:40:48;22.40;47.20
66032;DHT22;52799;45.654;13.810;2022-07-12T04:43:14;22.40;47.10
66032;DHT22;52799;45.654;13.810;2022-07-12T04:45:39;22.40;46.90
66032;DHT22;52799;45.654;13.810;2022-07-12T04:48:12;22.40;46.80
66032;DHT22;52799;45.654;13.810;2022-07-12T04:50:38;22.40;46.80
66032;DHT22;52799;45.654;13.810;2022-07-12T04:53:03;22.50;46.60
66032;DHT22;52799;45.654;13.810;2022-07-12T04:55:29;22.60;46.60
66032;DHT22;52799;45.654;13.810;2022-07-12T04:57:54;22.60;46.50
66032;DHT22;52799;45.654;13.810;2022-07-12T05:00:20;22.70;46.20
66032;DHT22;52799;45.654;13.810;2022-07-12T05:02:46;22.60;46.20
66032;DHT22;52799;45.654;13.810;2022-07-12T05:05:11;22.60;46.30
66032;DHT22;52799;45.654;13.810;2022-07-12T05:07:37;22.60;46.40
66032;DHT22;52799;45.654;13.810;2022-07-12T05:10:03;22.70;46.30
66032;DHT22;52799;45.654;13.810;2022-07-12T05:12:29;22.80;46.20
66032;DHT22;52799;45.654;13.810;2022-07-12T05:14:54;22.70;46.30
66032;DHT22;52799;45.654;13.810;2022-07-12T05:17:20;22.80;46.20
66032;DHT22;52799;45.654;13.810;2022-07-12T05:19:45;22.70;46.50
66032;DHT22;52799;45.654;13.810;2022-07-12T05:22:11;22.80;46.40
66032;DHT22;52799;45.654;13.810;2022-07-12T05:24:36;22.70;46.40
66032;DHT22;52799;45.654;13.810;2022-07-12T05:27:02;22.80;46.50
66032;DHT22;52799;45.654;13.810;2022-07-12T05:29:28;22.70;46.30
66032;DHT22;52799;45.654;13.810;2022-07-12T05:31:56;22.70;46.60
66032;DHT22;52799;45.654;13.810;2022-07-12T05:34:22;22.80;46.40
66032;DHT22;52799;45.654;13.810;2022-07-12T05:36:48;22.80;46.20
66032;DHT22;52799;45.654;13.810;2022-07-12T05:39:13;22.90;45.90
66032;DHT22;52799;45.654;13.810;2022-07-12T05:41:39;22.90;45.90
66032;DHT22;52799;45.654;13.810;2022-07-12T05:44:04;23.00;45.50
66032;DHT22;52799;45.654;13.810;2022-07-12T05:46:30;23.10;45.60
66032;DHT22;52799;45.654;13.810;2022-07-12T05:48:56;23.20;45.30
66032;DHT22;52799;45.654;13.810;2022-07-12T05:51:21;23.40;44.90
66032;DHT22;52799;45.654;13.810;2022-07-12T05:54:05;23.70;44.20
66032;DHT22;52799;45.654;13.810;2022-07-12T05:56:31;23.90;44.20
66032;DHT22;52799;45.654;13.810;2022-07-12T05:58:57;24.10;44.00
66032;DHT22;52799;45.654;13.810;2022-07-12T06:01:22;24.50;43.40
66032;DHT22;52799;45.654;13.810;2022-07-12T06:03:48;24.60;42.60
66032;DHT22;52799;45.654;13.810;2022-07-12T06:06:13;24.70;42.00
66032;DHT22;52799;45.654;13.810;2022-07-12T06:08:39;24.80;41.70
66032;DHT22;52799;45.654;13.810;2022-07-12T06:11:04;24.70;41.60
66032;DHT22;52799;45.654;13.810;2022-07-12T06:13:30;24.70;42.10
66032;DHT22;52799;45.654;13.810;2022-07-12T06:15:55;24.70;42.10
66032;DHT22;52799;45.654;13.810;2022-07-12T06:18:21;24.60;41.60
66032;DHT22;52799;45.654;13.810;2022-07-12T06:20:47;24.80;42.30
66032;DHT22;52799;45.654;13.810;2022-07-12T06:23:12;24.90;41.90
66032;DHT22;52799;45.654;13.810;2022-07-12T06:25:38;25.10;41.70
66032;DHT22;52799;45.654;13.810;2022-07-12T06:28:04;25.10;41.20
66032;DHT22;52799;45.654;13.810;2022-07-12T06:30:30;25.20;40.00
66032;DHT22;52799;45.654;13.810;2022-07-12T06:32:55;25.30;38.80
66032;DHT22;52799;45.654;13.810;2022-07-12T06:35:21;25.60;39.70
66032;DHT22;52799;45.654;13.810;2022-07-12T06:37:47;25.90;38.90
66032;DHT22;52799;45.654;13.810;2022-07-12T06:40:12;26.10;38.50
66032;DHT22;52799;45.654;13.810;2022-07-12T06:42:40;26.20;38.10
66032;DHT22;52799;45.654;13.810;2022-07-12T06:45:06;26.50;38.20
66032;DHT22;52799;45.654;13.810;2022-07-12T06:47:32;26.90;37.80
66032;DHT22;52799;45.654;13.810;2022-07-12T06:49:57;27.10;37.20
66032;DHT22;52799;45.654;13.810;2022-07-12T06:52:23;27.30;36.10
66032;DHT22;52799;45.654;13.810;2022-07-12T06:54:48;27.40;36.00
66032;DHT22;52799;45.654;13.810;2022-07-12T06:57:14;27.50;36.30
66032;DHT22;52799;45.654;13.810;2022-07-12T06:59:39;27.60;35.00
66032;DHT22;52799;45.654;13.810;2022-07-12T07:02:05;27.70;34.60
66032;DHT22;52799;45.654;13.810;2022-07-12T07:04:31;27.80;34.40
66032;DHT22;52799;45.654;13.810;2022-07-12T07:06:56;27.90;34.70
66032;DHT22;52799;45.654;13.810;2022-07-12T07:09:22;27.90;34.70
66032;DHT22;52799;45.654;13.810;2022-07-12T07:11:47;27.80;34.60
66032;DHT22;52799;45.654;13.810;2022-07-12T07:14:13;27.80;34.50
66032;DHT22;52799;45.654;13.810;2022-07-12T07:16:38;27.60;34.50
66032;DHT22;52799;45.654;13.810;2022-07-12T07:19:04;27.40;34.30
66032;DHT22;52799;45.654;13.810;2022-07-12T07:21:31;27.20;35.20
66032;DHT22;52799;45.654;13.810;2022-07-12T07:23:57;27.10;35.30
66032;DHT22;52799;45.654;13.810;2022-07-12T07:26:22;27.10;35.50
66032;DHT22;52799;45.654;13.810;2022-07-12T07:28:48;27.00;35.70
66032;DHT22;52799;45.654;13.810;2022-07-12T07:31:35;26.90;35.90
66032;DHT22;52799;45.654;13.810;2022-07-12T07:34:01;26.90;35.90
66032;DHT22;52799;45.654;13.810;2022-07-12T07:36:27;26.80;36.00
66032;DHT22;52799;45.654;13.810;2022-07-12T07:38:53;26.90;36.50
66032;DHT22;52799;45.654;13.810;2022-07-12T07:41:18;27.10;36.80
66032;DHT22;52799;45.654;13.810;2022-07-12T07:43:44;27.30;35.40
66032;DHT22;52799;45.654;13.810;2022-07-12T07:46:09;27.60;35.20
66032;DHT22;52799;45.654;13.810;2022-07-12T07:48:35;27.90;35.10
66032;DHT22;52799;45.654;13.810;2022-07-12T07:51:00;28.10;34.60
66032;DHT22;52799;45.654;13.810;2022-07-12T07:53:26;28.30;34.40
66032;DHT22;52799;45.654;13.810;2022-07-12T07:55:52;28.50;34.60
66032;DHT22;52799;45.654;13.810;2022-07-12T07:58:17;28.60;34.20
66032;DHT22;52799;45.654;13.810;2022-07-12T08:00:43;28.60;34.20
66032;DHT22;52799;45.654;13.810;2022-07-12T08:03:08;28.60;34.00
66032;DHT22;52799;45.654;13.810;2022-07-12T08:05:34;28.40;33.90
66032;DHT22;52799;45.654;13.810;2022-07-12T08:07:59;28.20;34.80
66032;DHT22;52799;45.654;13.810;2022-07-12T08:10:25;28.00;36.30
66032;DHT22;52799;45.654;13.810;2022-07-12T08:12:51;27.90;37.10
66032;DHT22;52799;45.654;13.810;2022-07-12T08:15:16;27.80;37.40
66032;DHT22;52799;45.654;13.810;2022-07-12T08:17:42;27.80;36.70
66032;DHT22;52799;45.654;13.810;2022-07-12T08:20:08;27.80;37.00
66032;DHT22;52799;45.654;13.810;2022-07-12T08:22:33;27.90;36.90
66032;DHT22;52799;45.654;13.810;2022-07-12T08:24:59;28.00;36.30
66032;DHT22;52799;45.654;13.810;2022-07-12T08:27:25;27.80;36.90
66032;DHT22;52799;45.654;13.810;2022-07-12T08:29:50;27.90;36.70
66032;DHT22;52799;45.654;13.810;2022-07-12T08:32:16;27.90;35.60
66032;DHT22;52799;45.654;13.810;2022-07-12T08:34:42;27.80;35.40
66032;DHT22;52799;45.654;13.810;2022-07-12T08:37:07;27.70;36.20
66032;DHT22;52799;45.654;13.810;2022-07-12T08:39:33;27.60;37.00
66032;DHT22;52799;45.654;13.810;2022-07-12T08:41:59;27.60;37.20
66032;DHT22;52799;45.654;13.810;2022-07-12T08:44:25;27.60;36.70
66032;DHT22;52799;45.654;13.810;2022-07-12T08:46:50;27.70;36.20
66032;DHT22;52799;45.654;13.810;2022-07-12T08:49:18;27.70;35.80
66032;DHT22;52799;45.654;13.810;2022-07-12T08:51:43;27.70;36.40
66032;DHT22;52799;45.654;13.810;2022-07-12T08:54:09;27.80;36.20
66032;DHT22;52799;45.654;13.810;2022-07-12T08:56:36;27.80;35.90
66032;DHT22;52799;45.654;13.810;2022-07-12T09:01:41;27.80;36.10
66032;DHT22;52799;45.654;13.810;2022-07-12T09:04:23;27.90;36.00
66032;DHT22;52799;45.654;13.810;2022-07-12T09:06:49;28.00;36.20
66032;DHT22;52799;45.654;13.810;2022-07-12T09:09:27;28.10;36.50
66032;DHT22;52799;45.654;13.810;2022-07-12T09:11:53;28.20;36.20
66032;DHT22;52799;45.654;13.810;2022-07-12T09:14:19;28.20;35.40
66032;DHT22;52799;45.654;13.810;2022-07-12T09:17:07;28.20;35.80
66032;DHT22;52799;45.654;13.810;2022-07-12T09:19:38;28.20;36.20
66032;DHT22;52799;45.654;13.810;2022-07-12T09:22:04;28.30;36.20
66032;DHT22;52799;45.654;13.810;2022-07-12T09:24:30;28.40;35.90
66032;DHT22;52799;45.654;13.810;2022-07-12T09:26:57;28.40;35.90
66032;DHT22;52799;45.654;13.810;2022-07-12T09:29:24;28.40;36.10
66032;DHT22;52799;45.654;13.810;2022-07-12T09:31:51;28.50;35.60
66032;DHT22;52799;45.654;13.810;2022-07-12T09:34:36;28.40;36.00
66032;DHT22;52799;45.654;13.810;2022-07-12T09:37:20;28.40;35.90
66032;DHT22;52799;45.654;13.810;2022-07-12T09:39:47;28.40;36.20
66032;DHT22;52799;45.654;13.810;2022-07-12T09:42:13;28.50;36.20
66032;DHT22;52799;45.654;13.810;2022-07-12T09:44:39;28.50;36.00
66032;DHT22;52799;45.654;13.810;2022-07-12T09:47:12;28.50;36.00
66032;DHT22;52799;45.654;13.810;2022-07-12T09:49:38;28.50;36.10
66032;DHT22;52799;45.654;13.810;2022-07-12T09:52:04;28.50;36.70
66032;DHT22;52799;45.654;13.810;2022-07-12T09:54:30;28.40;37.50
66032;DHT22;52799;45.654;13.810;2022-07-12T09:56:58;28.30;37.20
66032;DHT22;52799;45.654;13.810;2022-07-12T09:59:24;28.20;37.60
66032;DHT22;52799;45.654;13.810;2022-07-12T10:01:52;28.10;36.80
66032;DHT22;52799;45.654;13.810;2022-07-12T10:04:21;28.00;37.70
66032;DHT22;52799;45.654;13.810;2022-07-12T10:06:47;27.90;38.20
66032;DHT22;52799;45.654;13.810;2022-07-12T10:09:16;27.80;38.60
66032;DHT22;52799;45.654;13.810;2022-07-12T10:11:41;27.80;38.10
66032;DHT22;52799;45.654;13.810;2022-07-12T10:14:11;27.70;38.50
66032;DHT22;52799;45.654;13.810;2022-07-12T10:16:38;27.60;38.80
66032;DHT22;52799;45.654;13.810;2022-07-12T10:21:50;27.60;38.80
66032;DHT22;52799;45.654;13.810;2022-07-12T10:27:26;27.60;39.30
66032;DHT22;52799;45.654;13.810;2022-07-12T10:29:47;27.60;39.80
66032;DHT22;52799;45.654;13.810;2022-07-12T10:32:26;27.60;38.70
66032;DHT22;52799;45.654;13.810;2022-07-12T10:35:04;27.60;38.70
66032;DHT22;52799;45.654;13.810;2022-07-12T10:37:31;27.60;38.50
66032;DHT22;52799;45.654;13.810;2022-07-12T10:42:38;27.60;39.00
66032;DHT22;52799;45.654;13.810;2022-07-12T10:45:14;27.60;39.50
66032;DHT22;52799;45.654;13.810;2022-07-12T10:47:52;27.60;39.30
66032;DHT22;52799;45.654;13.810;2022-07-12T10:50:18;27.70;38.20
66032;DHT22;52799;45.654;13.810;2022-07-12T10:52:43;27.80;39.40
66032;DHT22;52799;45.654;13.810;2022-07-12T10:57:39;27.90;39.90
66032;DHT22;52799;45.654;13.810;2022-07-12T11:00:06;27.90;39.70
66032;DHT22;52799;45.654;13.810;2022-07-12T11:02:32;27.80;39.30
66032;DHT22;52799;45.654;13.810;2022-07-12T11:04:58;27.70;38.40
66032;DHT22;52799;45.654;13.810;2022-07-12T11:07:23;27.70;39.10
66032;DHT22;52799;45.654;13.810;2022-07-12T11:09:52;27.70;39.50
66032;DHT22;52799;45.654;13.810;2022-07-12T11:12:18;27.70;39.50
66032;DHT22;52799;45.654;13.810;2022-07-12T11:14:44;27.70;39.50
66032;DHT22;52799;45.654;13.810;2022-07-12T11:17:10;27.70;39.90
66032;DHT22;52799;45.654;13.810;2022-07-12T11:19:36;27.70;40.80
66032;DHT22;52799;45.654;13.810;2022-07-12T11:22:01;27.70;42.00
66032;DHT22;52799;45.654;13.810;2022-07-12T11:24:28;27.60;42.20
66032;DHT22;52799;45.654;13.810;2022-07-12T11:26:54;27.50;42.90
66032;DHT22;52799;45.654;13.810;2022-07-12T11:29:20;27.50;42.50
66032;DHT22;52799;45.654;13.810;2022-07-12T11:31:46;27.50;41.40
66032;DHT22;52799;45.654;13.810;2022-07-12T11:37:04;27.30;42.10
66032;DHT22;52799;45.654;13.810;2022-07-12T11:41:55;27.30;43.20
66032;DHT22;52799;45.654;13.810;2022-07-12T11:47:08;27.40;43.80
66032;DHT22;52799;45.654;13.810;2022-07-12T11:49:34;27.40;43.70
66032;DHT22;52799;45.654;13.810;2022-07-12T11:51:59;27.50;44.20
66032;DHT22;52799;45.654;13.810;2022-07-12T11:54:25;27.50;43.90
66032;DHT22;52799;45.654;13.810;2022-07-12T11:57:04;27.40;44.70
66032;DHT22;52799;45.654;13.810;2022-07-12T11:59:29;27.40;45.30
66032;DHT22;52799;45.654;13.810;2022-07-12T12:04:29;27.40;46.80
66032;DHT22;52799;45.654;13.810;2022-07-12T12:06:55;27.40;47.50
66032;DHT22;52799;45.654;13.810;2022-07-12T12:09:21;27.40;47.80
66032;DHT22;52799;45.654;13.810;2022-07-12T12:11:46;27.40;46.90
66032;DHT22;52799;45.654;13.810;2022-07-12T12:14:12;27.40;46.20
66032;DHT22;52799;45.654;13.810;2022-07-12T12:16:37;27.40;47.60
66032;DHT22;52799;45.654;13.810;2022-07-12T12:19:03;27.40;46.70
66032;DHT22;52799;45.654;13.810;2022-07-12T12:21:35;27.30;46.40
66032;DHT22;52799;45.654;13.810;2022-07-12T12:24:10;27.30;46.90
66032;DHT22;52799;45.654;13.810;2022-07-12T12:26:36;27.40;46.90
66032;DHT22;52799;45.654;13.810;2022-07-12T12:29:01;27.30;46.70
66032;DHT22;52799;45.654;13.810;2022-07-12T12:31:28;27.40;47.00
66032;DHT22;52799;45.654;13.810;2022-07-12T12:33:56;27.40;47.90
66032;DHT22;52799;45.654;13.810;2022-07-12T12:36:25;27.40;46.70
66032;DHT22;52799;45.654;13.810;2022-07-12T12:41:17;27.30;46.80
66032;DHT22;52799;45.654;13.810;2022-07-12T12:43:43;27.30;48.40
66032;DHT22;52799;45.654;13.810;2022-07-12T12:46:09;27.30;48.30
66032;DHT22;52799;45.654;13.810;2022-07-12T12:48:35;27.30;48.60
66032;DHT22;52799;45.654;13.810;2022-07-12T12:51:04;27.30;49.30
66032;DHT22;52799;45.654;13.810;2022-07-12T12:53:30;27.30;49.40
66032;DHT22;52799;45.654;13.810;2022-07-12T12:55:56;27.30;49.00
66032;DHT22;52799;45.654;13.810;2022-07-12T12:58:25;27.30;48.40
66032;DHT22;52799;45.654;13.810;2022-07-12T13:00:51;27.30;48.20
66032;DHT22;52799;45.654;13.810;2022-07-12T13:03:17;27.30;48.50
66032;DHT22;52799;45.654;13.810;2022-07-12T13:05:43;27.30;47.30
66032;DHT22;52799;45.654;13.810;2022-07-12T13:08:09;27.30;47.60
66032;DHT22;52799;45.654;13.810;2022-07-12T13:10:35;27.30;48.30
66032;DHT22;52799;45.654;13.810;2022-07-12T13:13:04;27.30;48.50
66032;DHT22;52799;45.654;13.810;2022-07-12T13:15:30;27.30;49.50
66032;DHT22;52799;45.654;13.810;2022-07-12T13:17:56;27.30;48.60
66032;DHT22;52799;45.654;13.810;2022-07-12T13:20:22;27.30;48.10
66032;DHT22;52799;45.654;13.810;2022-07-12T13:22:48;27.30;48.40
66032;DHT22;52799;45.654;13.810;2022-07-12T13:25:14;27.30;48.10
66032;DHT22;52799;45.654;13.810;2022-07-12T13:27:40;27.30;48.50
66032;DHT22;52799;45.654;13.810;2022-07-12T13:30:07;27.30;51.90
66032;DHT22;52799;45.654;13.810;2022-07-12T13:32:33;27.30;51.70
66032;DHT22;52799;45.654;13.810;2022-07-12T13:34:59;27.40;52.10
66032;DHT22;52799;45.654;13.810;2022-07-12T13:37:25;27.30;53.70
66032;DHT22;52799;45.654;13.810;2022-07-12T13:39:50;27.30;54.00
66032;DHT22;52799;45.654;13.810;2022-07-12T13:42:34;27.30;52.90
66032;DHT22;52799;45.654;13.810;2022-07-12T13:45:00;27.40;52.40
66032;DHT22;52799;45.654;13.810;2022-07-12T13:47:26;27.40;52.50
66032;DHT22;52799;45.654;13.810;2022-07-12T13:49:51;27.40;53.80
66032;DHT22;52799;45.654;13.810;2022-07-12T13:52:17;27.30;53.70
66032;DHT22;52799;45.654;13.810;2022-07-12T13:54:43;27.30;54.40
66032;DHT22;52799;45.654;13.810;2022-07-12T13:57:09;27.30;54.40
66032;DHT22;52799;45.654;13.810;2022-07-12T13:59:36;27.30;53.80
66032;DHT22;52799;45.654;13.810;2022-07-12T14:02:01;27.30;56.00
66032;DHT22;52799;45.654;13.810;2022-07-12T14:04:27;27.30;55.50
66032;DHT22;52799;45.654;13.810;2022-07-12T14:06:52;27.20;55.40
66032;DHT22;52799;45.654;13.810;2022-07-12T14:09:18;27.20;55.10
66032;DHT22;52799;45.654;13.810;2022-07-12T14:11:43;27.20;55.40
66032;DHT22;52799;45.654;13.810;2022-07-12T14:14:09;27.30;54.70
66032;DHT22;52799;45.654;13.810;2022-07-12T14:16:34;27.30;55.20
66032;DHT22;52799;45.654;13.810;2022-07-12T14:19:00;27.30;55.40
66032;DHT22;52799;45.654;13.810;2022-07-12T14:21:28;27.30;56.00
66032;DHT22;52799;45.654;13.810;2022-07-12T14:23:58;27.20;55.20
66032;DHT22;52799;45.654;13.810;2022-07-12T14:26:27;27.20;55.50
66032;DHT22;52799;45.654;13.810;2022-07-12T14:28:53;27.30;55.00
66032;DHT22;52799;45.654;13.810;2022-07-12T14:31:19;27.30;54.80
66032;DHT22;52799;45.654;13.810;2022-07-12T14:33:44;27.30;55.10
66032;DHT22;52799;45.654;13.810;2022-07-12T14:36:10;27.40;55.20
66032;DHT22;52799;45.654;13.810;2022-07-12T14:38:35;27.30;55.20
66032;DHT22;52799;45.654;13.810;2022-07-12T14:41:01;27.20;55.70
66032;DHT22;52799;45.654;13.810;2022-07-12T14:43:27;27.20;56.40
66032;DHT22;52799;45.654;13.810;2022-07-12T14:45:52;27.20;56.30
66032;DHT22;52799;45.654;13.810;2022-07-12T14:48:18;27.20;56.80
66032;DHT22;52799;45.654;13.810;2022-07-12T14:50:44;27.20;57.00
66032;DHT22;52799;45.654;13.810;2022-07-12T14:53:09;27.20;57.10
66032;DHT22;52799;45.654;13.810;2022-07-12T14:55:35;27.10;57.70
66032;DHT22;52799;45.654;13.810;2022-07-12T14:58:00;27.10;56.90
66032;DHT22;52799;45.654;13.810;2022-07-12T15:00:27;27.00;56.50
66032;DHT22;52799;45.654;13.810;2022-07-12T15:02:53;27.00;56.60
66032;DHT22;52799;45.654;13.810;2022-07-12T15:05:24;27.00;56.10
66032;DHT22;52799;45.654;13.810;2022-07-12T15:07:49;27.10;56.60
66032;DHT22;52799;45.654;13.810;2022-07-12T15:10:15;27.00;56.60
66032;DHT22;52799;45.654;13.810;2022-07-12T15:12:40;27.00;56.80
66032;DHT22;52799;45.654;13.810;2022-07-12T15:15:06;27.00;56.20
66032;DHT22;52799;45.654;13.810;2022-07-12T15:17:32;27.00;56.40
66032;DHT22;52799;45.654;13.810;2022-07-12T15:19:57;26.90;56.80
66032;DHT22;52799;45.654;13.810;2022-07-12T15:22:23;27.00;56.10
66032;DHT22;52799;45.654;13.810;2022-07-12T15:24:48;27.00;56.00
66032;DHT22;52799;45.654;13.810;2022-07-12T15:27:14;27.10;55.20
66032;DHT22;52799;45.654;13.810;2022-07-12T15:29:40;27.10;54.80
66032;DHT22;52799;45.654;13.810;2022-07-12T15:32:07;27.10;54.80
66032;DHT22;52799;45.654;13.810;2022-07-12T15:34:33;27.10;54.90
66032;DHT22;52799;45.654;13.810;2022-07-12T15:36:59;27.10;55.00